Lincoln City, OR

7:35 AM PST on February 12, 2016 (GMT -0800)
Oceanlake District | | Change Station
CLOSE
Current Station
Personal Weather Station
Location: Lincoln City, OR
Elevation: 33 ft
Nearby Weather Stations

Elev 33 ft 44.99 °N, 124.01 °W | Updated 4 minutes ago

Rain
Rain
54.0 °F
Feels Like 54.0 °F
N
11.4
Wind Variable Wind from ESE

Today
High -- | Low -- °F
--% Chance of Precip.
Yesterday
High -- | Low -- °F
Precip. -- in
Pressure 30.16 in
Visibility 2.5 miles
Clouds Overcast 400 ft
Dew Point 51 °F
Humidity 91%
Rainfall 0.12 in
Snow Depth Not available.
7:21 AM 5:39 PM
Waxing Crescent, 21% visible
METAR KONP 121515Z AUTO 20013G17KT 2 1/2SM +RA OVC004 12/11 A3016 RMK AO2 P0004
Pressure 30.16 in
Visibility 2.5 miles
Clouds Overcast 400 ft
Dew Point 51 °F
Humidity 91%
Rainfall 0.12 in
Snow Depth Not available.
7:21 AM 5:39 PM
Waxing Crescent, 21% visible
METAR KONP 121515Z AUTO 20013G17KT 2 1/2SM +RA OVC004 12/11 A3016 RMK AO2 P0004

10-Day Weather Forecast

Almanac

Astronomy

Feb. 12, 2016 Rise Set
Actual Time
Civil Twilight
Nautical Twilight
Astronomical Twilight
Moon
Length of Visible Light
Length of Day
Tomorrow will be .
, % of the Moon is Illuminated

Today's Extremes

State Highs State Lows

Community

WunderPhotos

Upload Photos

1,892,335 photos uploaded!

WunderBlog® & News

Nearby

Air Quality

  Air Quality AQ Index Pollutant
Not available.

Snow Depth

Station Depth Elevation

Earthquake Activity

City Distance Mag. Time & Date
Minimum magnitude displayed is 2.5.

Coastal Water Temperatures

Place Temperature

Stations

Nearby Weather Stations

Station Location Temp. Windchill Dew Point Humidity Wind Precip. Elev Updated Type
                   

Watches & Warnings

There are currently no watches in effect.